sensor_id;sensor_type;location;lat;lon;timestamp;P1;durP1;ratioP1;P2;durP2;ratioP2
6531;SDS011;3299;42.004;24.868;2024-02-04T00:02:15;1.98;;;1.88;;
6531;SDS011;3299;42.004;24.868;2024-02-04T00:04:41;1.83;;;1.73;;
6531;SDS011;3299;42.004;24.868;2024-02-04T00:07:09;2.80;;;1.95;;
6531;SDS011;3299;42.004;24.868;2024-02-04T00:09:35;2.28;;;1.80;;
6531;SDS011;3299;42.004;24.868;2024-02-04T00:12:00;2.10;;;2.00;;
6531;SDS011;3299;42.004;24.868;2024-02-04T00:14:28;2.85;;;1.80;;
6531;SDS011;3299;42.004;24.868;2024-02-04T00:16:54;3.30;;;2.03;;
6531;SDS011;3299;42.004;24.868;2024-02-04T00:19:19;2.22;;;1.80;;
6531;SDS011;3299;42.004;24.868;2024-02-04T00:21:45;2.15;;;1.95;;
6531;SDS011;3299;42.004;24.868;2024-02-04T00:24:10;1.95;;;1.80;;
6531;SDS011;3299;42.004;24.868;2024-02-04T00:26:35;1.75;;;1.65;;
6531;SDS011;3299;42.004;24.868;2024-02-04T00:29:01;2.60;;;2.00;;
6531;SDS011;3299;42.004;24.868;2024-02-04T00:31:26;1.60;;;1.50;;
6531;SDS011;3299;42.004;24.868;2024-02-04T00:33:51;1.75;;;1.52;;
6531;SDS011;3299;42.004;24.868;2024-02-04T00:36:17;2.35;;;2.25;;
6531;SDS011;3299;42.004;24.868;2024-02-04T00:38:43;3.83;;;2.30;;
6531;SDS011;3299;42.004;24.868;2024-02-04T00:41:09;1.70;;;1.60;;
6531;SDS011;3299;42.004;24.868;2024-02-04T00:43:35;1.90;;;1.80;;
6531;SDS011;3299;42.004;24.868;2024-02-04T00:46:00;3.53;;;2.05;;
6531;SDS011;3299;42.004;24.868;2024-02-04T00:48:26;1.75;;;1.65;;
6531;SDS011;3299;42.004;24.868;2024-02-04T00:50:51;1.90;;;1.80;;
6531;SDS011;3299;42.004;24.868;2024-02-04T00:53:17;2.22;;;1.95;;
6531;SDS011;3299;42.004;24.868;2024-02-04T00:55:42;1.77;;;1.67;;
6531;SDS011;3299;42.004;24.868;2024-02-04T00:58:08;1.98;;;1.77;;
6531;SDS011;3299;42.004;24.868;2024-02-04T01:00:33;3.17;;;1.60;;
6531;SDS011;3299;42.004;24.868;2024-02-04T01:02:58;1.80;;;1.70;;
6531;SDS011;3299;42.004;24.868;2024-02-04T01:05:24;1.80;;;1.70;;
6531;SDS011;3299;42.004;24.868;2024-02-04T01:07:49;1.85;;;1.67;;
6531;SDS011;3299;42.004;24.868;2024-02-04T01:10:14;1.85;;;1.75;;
6531;SDS011;3299;42.004;24.868;2024-02-04T01:12:40;2.90;;;2.25;;
6531;SDS011;3299;42.004;24.868;2024-02-04T01:15:05;3.50;;;2.20;;
6531;SDS011;3299;42.004;24.868;2024-02-04T01:17:31;2.35;;;2.15;;
6531;SDS011;3299;42.004;24.868;2024-02-04T01:19:58;2.13;;;2.03;;
6531;SDS011;3299;42.004;24.868;2024-02-04T01:22:23;1.80;;;1.70;;
6531;SDS011;3299;42.004;24.868;2024-02-04T01:24:51;1.83;;;1.73;;
6531;SDS011;3299;42.004;24.868;2024-02-04T01:27:17;1.98;;;1.88;;
6531;SDS011;3299;42.004;24.868;2024-02-04T01:29:42;1.77;;;1.67;;
6531;SDS011;3299;42.004;24.868;2024-02-04T01:32:07;2.53;;;2.10;;
6531;SDS011;3299;42.004;24.868;2024-02-04T01:34:33;2.10;;;1.95;;
6531;SDS011;3299;42.004;24.868;2024-02-04T01:36:58;2.28;;;2.10;;
6531;SDS011;3299;42.004;24.868;2024-02-04T01:39:23;2.08;;;1.85;;
6531;SDS011;3299;42.004;24.868;2024-02-04T01:41:50;1.98;;;1.88;;
6531;SDS011;3299;42.004;24.868;2024-02-04T01:44:15;1.98;;;1.83;;
6531;SDS011;3299;42.004;24.868;2024-02-04T01:46:41;1.70;;;1.60;;
6531;SDS011;3299;42.004;24.868;2024-02-04T01:49:07;1.90;;;1.80;;
6531;SDS011;3299;42.004;24.868;2024-02-04T01:51:33;2.05;;;1.90;;
6531;SDS011;3299;42.004;24.868;2024-02-04T01:53:59;2.38;;;1.80;;
6531;SDS011;3299;42.004;24.868;2024-02-04T01:56:25;2.00;;;1.90;;
6531;SDS011;3299;42.004;24.868;2024-02-04T01:58:51;2.15;;;1.80;;
6531;SDS011;3299;42.004;24.868;2024-02-04T02:01:18;2.13;;;2.03;;
6531;SDS011;3299;42.004;24.868;2024-02-04T02:03:44;1.83;;;1.73;;
6531;SDS011;3299;42.004;24.868;2024-02-04T02:06:10;2.03;;;1.92;;
6531;SDS011;3299;42.004;24.868;2024-02-04T02:08:35;1.92;;;1.83;;
6531;SDS011;3299;42.004;24.868;2024-02-04T02:11:06;1.75;;;1.48;;
6531;SDS011;3299;42.004;24.868;2024-02-04T02:13:36;2.25;;;2.10;;
6531;SDS011;3299;42.004;24.868;2024-02-04T02:16:07;1.90;;;1.77;;
6531;SDS011;3299;42.004;24.868;2024-02-04T02:18:40;1.90;;;1.80;;
6531;SDS011;3299;42.004;24.868;2024-02-04T02:26:52;2.33;;;2.22;;
6531;SDS011;3299;42.004;24.868;2024-02-04T02:29:19;3.55;;;2.17;;
6531;SDS011;3299;42.004;24.868;2024-02-04T02:31:44;1.88;;;1.77;;
6531;SDS011;3299;42.004;24.868;2024-02-04T02:34:11;1.98;;;1.88;;
6531;SDS011;3299;42.004;24.868;2024-02-04T02:36:39;2.28;;;2.08;;
6531;SDS011;3299;42.004;24.868;2024-02-04T02:39:13;1.77;;;1.65;;
6531;SDS011;3299;42.004;24.868;2024-02-04T02:41:47;1.92;;;1.80;;
6531;SDS011;3299;42.004;24.868;2024-02-04T02:44:16;2.17;;;1.85;;
6531;SDS011;3299;42.004;24.868;2024-02-04T02:46:42;2.08;;;1.90;;
6531;SDS011;3299;42.004;24.868;2024-02-04T02:49:10;2.30;;;2.10;;
6531;SDS011;3299;42.004;24.868;2024-02-04T02:51:36;3.08;;;2.00;;
6531;SDS011;3299;42.004;24.868;2024-02-04T02:54:01;2.17;;;1.98;;
6531;SDS011;3299;42.004;24.868;2024-02-04T02:56:26;2.53;;;2.00;;
6531;SDS011;3299;42.004;24.868;2024-02-04T02:58:52;2.20;;;2.00;;
6531;SDS011;3299;42.004;24.868;2024-02-04T03:01:17;3.22;;;2.33;;
6531;SDS011;3299;42.004;24.868;2024-02-04T03:03:42;2.33;;;2.20;;
6531;SDS011;3299;42.004;24.868;2024-02-04T03:06:08;2.00;;;1.90;;
6531;SDS011;3299;42.004;24.868;2024-02-04T03:08:33;2.22;;;2.03;;
6531;SDS011;3299;42.004;24.868;2024-02-04T03:10:58;4.63;;;1.88;;
6531;SDS011;3299;42.004;24.868;2024-02-04T03:13:24;2.45;;;2.25;;
6531;SDS011;3299;42.004;24.868;2024-02-04T03:15:49;2.33;;;2.10;;
6531;SDS011;3299;42.004;24.868;2024-02-04T03:18:15;1.98;;;1.80;;
6531;SDS011;3299;42.004;24.868;2024-02-04T03:20:40;2.28;;;2.08;;
6531;SDS011;3299;42.004;24.868;2024-02-04T03:23:05;1.73;;;1.63;;
6531;SDS011;3299;42.004;24.868;2024-02-04T03:25:31;3.70;;;2.13;;
6531;SDS011;3299;42.004;24.868;2024-02-04T03:27:56;2.10;;;1.98;;
6531;SDS011;3299;42.004;24.868;2024-02-04T03:30:22;2.33;;;2.03;;
6531;SDS011;3299;42.004;24.868;2024-02-04T03:32:47;2.30;;;2.10;;
6531;SDS011;3299;42.004;24.868;2024-02-04T03:35:12;4.15;;;3.58;;
6531;SDS011;3299;42.004;24.868;2024-02-04T03:37:38;2.63;;;2.53;;
6531;SDS011;3299;42.004;24.868;2024-02-04T03:40:03;2.42;;;2.25;;
6531;SDS011;3299;42.004;24.868;2024-02-04T03:42:29;3.00;;;2.80;;
6531;SDS011;3299;42.004;24.868;2024-02-04T03:44:55;2.83;;;2.63;;
6531;SDS011;3299;42.004;24.868;2024-02-04T03:47:21;2.88;;;2.60;;
6531;SDS011;3299;42.004;24.868;2024-02-04T03:49:46;2.72;;;2.53;;
6531;SDS011;3299;42.004;24.868;2024-02-04T03:52:12;2.60;;;2.40;;
6531;SDS011;3299;42.004;24.868;2024-02-04T03:54:37;2.35;;;2.20;;
6531;SDS011;3299;42.004;24.868;2024-02-04T03:57:02;2.40;;;2.03;;
6531;SDS011;3299;42.004;24.868;2024-02-04T03:59:28;2.20;;;1.90;;
6531;SDS011;3299;42.004;24.868;2024-02-04T04:01:53;2.03;;;1.92;;
6531;SDS011;3299;42.004;24.868;2024-02-04T04:04:19;2.08;;;1.98;;
6531;SDS011;3299;42.004;24.868;2024-02-04T04:06:45;2.67;;;2.30;;
6531;SDS011;3299;42.004;24.868;2024-02-04T04:09:11;3.72;;;2.58;;
6531;SDS011;3299;42.004;24.868;2024-02-04T04:11:36;3.28;;;2.95;;
6531;SDS011;3299;42.004;24.868;2024-02-04T04:14:02;3.58;;;3.28;;
6531;SDS011;3299;42.004;24.868;2024-02-04T04:16:28;3.22;;;2.92;;
6531;SDS011;3299;42.004;24.868;2024-02-04T04:18:53;2.67;;;2.47;;
6531;SDS011;3299;42.004;24.868;2024-02-04T04:21:19;2.50;;;2.30;;
6531;SDS011;3299;42.004;24.868;2024-02-04T04:23:45;2.17;;;2.08;;
6531;SDS011;3299;42.004;24.868;2024-02-04T04:26:11;2.03;;;1.92;;
6531;SDS011;3299;42.004;24.868;2024-02-04T04:28:36;2.05;;;1.95;;
6531;SDS011;3299;42.004;24.868;2024-02-04T04:31:01;2.35;;;2.17;;
6531;SDS011;3299;42.004;24.868;2024-02-04T04:33:27;2.28;;;1.95;;
6531;SDS011;3299;42.004;24.868;2024-02-04T04:35:52;2.55;;;2.35;;
6531;SDS011;3299;42.004;24.868;2024-02-04T04:38:18;2.03;;;1.92;;
6531;SDS011;3299;42.004;24.868;2024-02-04T04:40:43;2.20;;;2.10;;
6531;SDS011;3299;42.004;24.868;2024-02-04T04:43:08;3.90;;;2.30;;
6531;SDS011;3299;42.004;24.868;2024-02-04T04:45:34;2.50;;;2.30;;
6531;SDS011;3299;42.004;24.868;2024-02-04T04:47:59;3.22;;;2.40;;
6531;SDS011;3299;42.004;24.868;2024-02-04T04:50:25;2.42;;;2.22;;
6531;SDS011;3299;42.004;24.868;2024-02-04T04:52:50;4.13;;;2.33;;
6531;SDS011;3299;42.004;24.868;2024-02-04T04:55:16;2.30;;;2.20;;
6531;SDS011;3299;42.004;24.868;2024-02-04T04:57:41;2.80;;;2.35;;
6531;SDS011;3299;42.004;24.868;2024-02-04T05:00:07;3.13;;;2.83;;
6531;SDS011;3299;42.004;24.868;2024-02-04T05:02:35;4.55;;;4.13;;
6531;SDS011;3299;42.004;24.868;2024-02-04T05:05:05;3.22;;;2.92;;
6531;SDS011;3299;42.004;24.868;2024-02-04T05:07:31;2.45;;;2.35;;
6531;SDS011;3299;42.004;24.868;2024-02-04T05:09:56;2.30;;;2.10;;
6531;SDS011;3299;42.004;24.868;2024-02-04T05:12:21;2.40;;;2.20;;
6531;SDS011;3299;42.004;24.868;2024-02-04T05:14:47;3.88;;;3.58;;
6531;SDS011;3299;42.004;24.868;2024-02-04T05:17:12;3.40;;;3.10;;
6531;SDS011;3299;42.004;24.868;2024-02-04T05:19:38;9.48;;;3.63;;
6531;SDS011;3299;42.004;24.868;2024-02-04T05:22:05;4.22;;;3.70;;
6531;SDS011;3299;42.004;24.868;2024-02-04T05:24:30;3.95;;;3.13;;
6531;SDS011;3299;42.004;24.868;2024-02-04T05:26:56;4.78;;;3.42;;
6531;SDS011;3299;42.004;24.868;2024-02-04T05:29:21;6.40;;;2.92;;
6531;SDS011;3299;42.004;24.868;2024-02-04T05:31:47;3.58;;;2.40;;
6531;SDS011;3299;42.004;24.868;2024-02-04T05:34:12;2.42;;;2.22;;
6531;SDS011;3299;42.004;24.868;2024-02-04T05:36:38;2.67;;;2.47;;
6531;SDS011;3299;42.004;24.868;2024-02-04T05:39:13;3.10;;;2.90;;
6531;SDS011;3299;42.004;24.868;2024-02-04T05:41:39;2.60;;;2.40;;
6531;SDS011;3299;42.004;24.868;2024-02-04T05:44:05;2.90;;;2.70;;
6531;SDS011;3299;42.004;24.868;2024-02-04T05:46:31;3.28;;;3.03;;
6531;SDS011;3299;42.004;24.868;2024-02-04T05:48:57;3.80;;;3.50;;
6531;SDS011;3299;42.004;24.868;2024-02-04T05:51:22;4.20;;;3.55;;
6531;SDS011;3299;42.004;24.868;2024-02-04T05:53:48;6.63;;;4.78;;
6531;SDS011;3299;42.004;24.868;2024-02-04T05:56:13;3.53;;;3.33;;
6531;SDS011;3299;42.004;24.868;2024-02-04T05:58:39;4.50;;;3.80;;
6531;SDS011;3299;42.004;24.868;2024-02-04T06:01:05;3.83;;;3.38;;
6531;SDS011;3299;42.004;24.868;2024-02-04T06:03:30;4.47;;;3.08;;
6531;SDS011;3299;42.004;24.868;2024-02-04T06:05:56;3.05;;;2.67;;
6531;SDS011;3299;42.004;24.868;2024-02-04T06:08:21;3.00;;;2.80;;
6531;SDS011;3299;42.004;24.868;2024-02-04T06:10:47;2.63;;;2.28;;
6531;SDS011;3299;42.004;24.868;2024-02-04T06:13:12;2.80;;;2.60;;
6531;SDS011;3299;42.004;24.868;2024-02-04T06:15:37;2.70;;;2.30;;
6531;SDS011;3299;42.004;24.868;2024-02-04T06:18:03;5.15;;;4.72;;
6531;SDS011;3299;42.004;24.868;2024-02-04T06:20:28;6.40;;;5.47;;
6531;SDS011;3299;42.004;24.868;2024-02-04T06:22:54;7.43;;;5.50;;
6531;SDS011;3299;42.004;24.868;2024-02-04T06:25:19;9.57;;;5.70;;
6531;SDS011;3299;42.004;24.868;2024-02-04T06:27:44;7.05;;;4.38;;
6531;SDS011;3299;42.004;24.868;2024-02-04T06:30:10;7.22;;;4.30;;
6531;SDS011;3299;42.004;24.868;2024-02-04T06:32:36;5.05;;;4.55;;
6531;SDS011;3299;42.004;24.868;2024-02-04T06:35:01;3.50;;;2.72;;
6531;SDS011;3299;42.004;24.868;2024-02-04T06:37:27;2.58;;;2.40;;
6531;SDS011;3299;42.004;24.868;2024-02-04T06:39:53;2.47;;;2.28;;
6531;SDS011;3299;42.004;24.868;2024-02-04T06:42:18;2.15;;;2.05;;
6531;SDS011;3299;42.004;24.868;2024-02-04T06:44:44;2.15;;;1.58;;
6531;SDS011;3299;42.004;24.868;2024-02-04T06:47:10;1.60;;;1.50;;
6531;SDS011;3299;42.004;24.868;2024-02-04T06:49:37;1.95;;;1.85;;
6531;SDS011;3299;42.004;24.868;2024-02-04T06:52:03;1.52;;;1.42;;
6531;SDS011;3299;42.004;24.868;2024-02-04T06:54:29;1.67;;;1.58;;
6531;SDS011;3299;42.004;24.868;2024-02-04T06:56:54;1.50;;;1.40;;
6531;SDS011;3299;42.004;24.868;2024-02-04T06:59:19;1.77;;;1.60;;
6531;SDS011;3299;42.004;24.868;2024-02-04T07:01:45;1.67;;;1.58;;
6531;SDS011;3299;42.004;24.868;2024-02-04T07:04:10;1.85;;;1.60;;
6531;SDS011;3299;42.004;24.868;2024-02-04T07:06:36;1.60;;;1.50;;
6531;SDS011;3299;42.004;24.868;2024-02-04T07:09:01;1.55;;;1.48;;
6531;SDS011;3299;42.004;24.868;2024-02-04T07:11:27;1.58;;;1.50;;
6531;SDS011;3299;42.004;24.868;2024-02-04T07:13:52;1.33;;;1.33;;
6531;SDS011;3299;42.004;24.868;2024-02-04T07:16:24;1.58;;;1.48;;
6531;SDS011;3299;42.004;24.868;2024-02-04T07:18:54;2.13;;;2.03;;
6531;SDS011;3299;42.004;24.868;2024-02-04T07:21:19;2.15;;;1.88;;
6531;SDS011;3299;42.004;24.868;2024-02-04T07:23:45;1.83;;;1.73;;
6531;SDS011;3299;42.004;24.868;2024-02-04T07:26:10;1.70;;;1.60;;
6531;SDS011;3299;42.004;24.868;2024-02-04T07:28:37;1.50;;;1.40;;
6531;SDS011;3299;42.004;24.868;2024-02-04T07:31:02;1.63;;;1.50;;
6531;SDS011;3299;42.004;24.868;2024-02-04T07:33:28;1.50;;;1.40;;
6531;SDS011;3299;42.004;24.868;2024-02-04T07:35:53;1.20;;;1.20;;
6531;SDS011;3299;42.004;24.868;2024-02-04T07:38:18;2.30;;;1.30;;
6531;SDS011;3299;42.004;24.868;2024-02-04T07:40:44;1.40;;;1.40;;
6531;SDS011;3299;42.004;24.868;2024-02-04T07:43:09;1.38;;;1.38;;
6531;SDS011;3299;42.004;24.868;2024-02-04T07:45:35;1.92;;;1.83;;
6531;SDS011;3299;42.004;24.868;2024-02-04T07:48:00;2.53;;;2.33;;
6531;SDS011;3299;42.004;24.868;2024-02-04T07:50:27;2.03;;;1.85;;
6531;SDS011;3299;42.004;24.868;2024-02-04T07:52:52;2.42;;;2.33;;
6531;SDS011;3299;42.004;24.868;2024-02-04T07:55:18;2.15;;;2.05;;
6531;SDS011;3299;42.004;24.868;2024-02-04T07:57:43;2.70;;;2.47;;
6531;SDS011;3299;42.004;24.868;2024-02-04T08:00:09;2.60;;;2.40;;
6531;SDS011;3299;42.004;24.868;2024-02-04T08:02:38;6.60;;;1.80;;
6531;SDS011;3299;42.004;24.868;2024-02-04T08:05:04;2.53;;;2.33;;
6531;SDS011;3299;42.004;24.868;2024-02-04T08:07:30;3.25;;;2.22;;
6531;SDS011;3299;42.004;24.868;2024-02-04T08:09:56;2.45;;;2.00;;
6531;SDS011;3299;42.004;24.868;2024-02-04T08:12:22;2.35;;;1.90;;
6531;SDS011;3299;42.004;24.868;2024-02-04T08:14:47;2.38;;;2.17;;
6531;SDS011;3299;42.004;24.868;2024-02-04T08:17:13;1.95;;;1.85;;
6531;SDS011;3299;42.004;24.868;2024-02-04T08:19:39;2.60;;;1.80;;
6531;SDS011;3299;42.004;24.868;2024-02-04T08:22:04;2.15;;;1.90;;
6531;SDS011;3299;42.004;24.868;2024-02-04T08:24:30;2.63;;;2.42;;
6531;SDS011;3299;42.004;24.868;2024-02-04T08:26:57;2.33;;;2.15;;
6531;SDS011;3299;42.004;24.868;2024-02-04T08:29:23;1.95;;;1.85;;
6531;SDS011;3299;42.004;24.868;2024-02-04T08:31:49;3.83;;;2.50;;
6531;SDS011;3299;42.004;24.868;2024-02-04T08:34:15;4.38;;;2.55;;
6531;SDS011;3299;42.004;24.868;2024-02-04T08:36:40;3.00;;;2.25;;
6531;SDS011;3299;42.004;24.868;2024-02-04T08:39:06;2.45;;;2.30;;
6531;SDS011;3299;42.004;24.868;2024-02-04T08:41:31;2.50;;;2.30;;
6531;SDS011;3299;42.004;24.868;2024-02-04T08:43:57;2.72;;;2.53;;
6531;SDS011;3299;42.004;24.868;2024-02-04T08:46:22;2.38;;;1.90;;
6531;SDS011;3299;42.004;24.868;2024-02-04T08:48:48;2.33;;;2.22;;
6531;SDS011;3299;42.004;24.868;2024-02-04T08:51:13;3.03;;;2.72;;
6531;SDS011;3299;42.004;24.868;2024-02-04T08:53:41;3.10;;;2.53;;
6531;SDS011;3299;42.004;24.868;2024-02-04T08:56:07;2.55;;;2.35;;
6531;SDS011;3299;42.004;24.868;2024-02-04T08:58:34;2.55;;;2.03;;
6531;SDS011;3299;42.004;24.868;2024-02-04T09:01:02;5.72;;;3.88;;
6531;SDS011;3299;42.004;24.868;2024-02-04T09:03:30;2.15;;;1.55;;
6531;SDS011;3299;42.004;24.868;2024-02-04T09:05:57;2.03;;;1.92;;
6531;SDS011;3299;42.004;24.868;2024-02-04T09:08:22;2.17;;;2.00;;
6531;SDS011;3299;42.004;24.868;2024-02-04T09:10:48;2.60;;;2.13;;
6531;SDS011;3299;42.004;24.868;2024-02-04T09:13:13;2.03;;;1.80;;
6531;SDS011;3299;42.004;24.868;2024-02-04T09:15:39;1.75;;;1.65;;
6531;SDS011;3299;42.004;24.868;2024-02-04T09:18:04;2.22;;;2.08;;
6531;SDS011;3299;42.004;24.868;2024-02-04T09:20:30;2.60;;;1.80;;
6531;SDS011;3299;42.004;24.868;2024-02-04T09:22:55;3.55;;;2.50;;
6531;SDS011;3299;42.004;24.868;2024-02-04T09:25:21;4.18;;;3.30;;
6531;SDS011;3299;42.004;24.868;2024-02-04T09:27:46;4.88;;;2.72;;
6531;SDS011;3299;42.004;24.868;2024-02-04T09:30:12;5.57;;;2.05;;
6531;SDS011;3299;42.004;24.868;2024-02-04T09:32:37;2.25;;;1.83;;
6531;SDS011;3299;42.004;24.868;2024-02-04T09:35:03;2.83;;;1.80;;
6531;SDS011;3299;42.004;24.868;2024-02-04T09:37:29;3.08;;;2.20;;
6531;SDS011;3299;42.004;24.868;2024-02-04T09:39:54;1.48;;;1.38;;
6531;SDS011;3299;42.004;24.868;2024-02-04T09:42:25;2.03;;;1.33;;
6531;SDS011;3299;42.004;24.868;2024-02-04T09:44:53;1.15;;;1.05;;
6531;SDS011;3299;42.004;24.868;2024-02-04T09:47:18;6.60;;;5.00;;
6531;SDS011;3299;42.004;24.868;2024-02-04T09:49:45;1.30;;;1.23;;
6531;SDS011;3299;42.004;24.868;2024-02-04T09:52:12;1.38;;;1.27;;
6531;SDS011;3299;42.004;24.868;2024-02-04T09:54:45;3.00;;;1.40;;
6531;SDS011;3299;42.004;24.868;2024-02-04T09:57:14;1.48;;;1.08;;
6531;SDS011;3299;42.004;24.868;2024-02-04T09:59:41;1.00;;;1.00;;
6531;SDS011;3299;42.004;24.868;2024-02-04T10:02:09;1.55;;;1.45;;
6531;SDS011;3299;42.004;24.868;2024-02-04T10:04:35;1.00;;;1.00;;
6531;SDS011;3299;42.004;24.868;2024-02-04T10:07:01;1.63;;;1.52;;
6531;SDS011;3299;42.004;24.868;2024-02-04T10:09:27;1.60;;;1.30;;
6531;SDS011;3299;42.004;24.868;2024-02-04T10:11:53;2.92;;;1.60;;
6531;SDS011;3299;42.004;24.868;2024-02-04T10:14:18;2.08;;;1.98;;
6531;SDS011;3299;42.004;24.868;2024-02-04T10:16:45;2.30;;;2.10;;
6531;SDS011;3299;42.004;24.868;2024-02-04T10:19:11;1.67;;;1.20;;
6531;SDS011;3299;42.004;24.868;2024-02-04T10:21:37;1.77;;;1.38;;
6531;SDS011;3299;42.004;24.868;2024-02-04T10:24:02;1.80;;;1.60;;
6531;SDS011;3299;42.004;24.868;2024-02-04T10:26:28;1.70;;;1.60;;
6531;SDS011;3299;42.004;24.868;2024-02-04T10:28:59;1.10;;;1.10;;
6531;SDS011;3299;42.004;24.868;2024-02-04T10:31:25;1.50;;;1.40;;
6531;SDS011;3299;42.004;24.868;2024-02-04T10:33:52;2.25;;;1.50;;
6531;SDS011;3299;42.004;24.868;2024-02-04T10:36:18;2.05;;;1.60;;
6531;SDS011;3299;42.004;24.868;2024-02-04T10:38:43;2.25;;;1.45;;
6531;SDS011;3299;42.004;24.868;2024-02-04T10:41:16;1.45;;;1.35;;
6531;SDS011;3299;42.004;24.868;2024-02-04T10:43:43;1.75;;;1.38;;
6531;SDS011;3299;42.004;24.868;2024-02-04T10:46:09;1.40;;;1.30;;
6531;SDS011;3299;42.004;24.868;2024-02-04T10:48:37;2.97;;;1.90;;
6531;SDS011;3299;42.004;24.868;2024-02-04T10:51:12;2.28;;;2.08;;
6531;SDS011;3299;42.004;24.868;2024-02-04T10:53:43;1.77;;;1.67;;
6531;SDS011;3299;42.004;24.868;2024-02-04T10:56:12;1.52;;;1.20;;
6531;SDS011;3299;42.004;24.868;2024-02-04T10:58:43;1.20;;;1.05;;
6531;SDS011;3299;42.004;24.868;2024-02-04T11:01:10;1.88;;;1.73;;
6531;SDS011;3299;42.004;24.868;2024-02-04T11:03:36;1.30;;;1.20;;
6531;SDS011;3299;42.004;24.868;2024-02-04T11:06:03;2.47;;;1.30;;
6531;SDS011;3299;42.004;24.868;2024-02-04T11:08:29;3.70;;;1.88;;
6531;SDS011;3299;42.004;24.868;2024-02-04T11:10:55;2.03;;;1.77;;
6531;SDS011;3299;42.004;24.868;2024-02-04T11:13:22;1.85;;;1.30;;
6531;SDS011;3299;42.004;24.868;2024-02-04T11:15:48;2.20;;;1.10;;
6531;SDS011;3299;42.004;24.868;2024-02-04T11:18:37;4.97;;;2.33;;
6531;SDS011;3299;42.004;24.868;2024-02-04T11:26:37;1.50;;;1.30;;
6531;SDS011;3299;42.004;24.868;2024-02-04T11:29:06;1.48;;;1.38;;
6531;SDS011;3299;42.004;24.868;2024-02-04T11:31:32;3.13;;;2.17;;
6531;SDS011;3299;42.004;24.868;2024-02-04T11:33:57;1.38;;;1.35;;
6531;SDS011;3299;42.004;24.868;2024-02-04T11:36:24;4.57;;;1.95;;
6531;SDS011;3299;42.004;24.868;2024-02-04T11:38:50;3.30;;;1.77;;
6531;SDS011;3299;42.004;24.868;2024-02-04T11:41:25;3.53;;;2.05;;
6531;SDS011;3299;42.004;24.868;2024-02-04T11:43:52;1.65;;;1.42;;
6531;SDS011;3299;42.004;24.868;2024-02-04T11:46:27;1.20;;;1.10;;
6531;SDS011;3299;42.004;24.868;2024-02-04T11:48:57;2.42;;;1.70;;
6531;SDS011;3299;42.004;24.868;2024-02-04T11:51:23;1.65;;;1.33;;
6531;SDS011;3299;42.004;24.868;2024-02-04T11:53:50;1.70;;;1.60;;
6531;SDS011;3299;42.004;24.868;2024-02-04T11:56:17;1.15;;;1.05;;
6531;SDS011;3299;42.004;24.868;2024-02-04T11:58:43;4.00;;;1.10;;
6531;SDS011;3299;42.004;24.868;2024-02-04T12:01:09;1.90;;;1.80;;
6531;SDS011;3299;42.004;24.868;2024-02-04T12:03:35;1.00;;;1.00;;
6531;SDS011;3299;42.004;24.868;2024-02-04T12:06:02;1.13;;;0.90;;
6531;SDS011;3299;42.004;24.868;2024-02-04T12:08:29;1.85;;;0.98;;
6531;SDS011;3299;42.004;24.868;2024-02-04T12:10:56;0.80;;;0.80;;
6531;SDS011;3299;42.004;24.868;2024-02-04T12:13:23;0.98;;;0.98;;
6531;SDS011;3299;42.004;24.868;2024-02-04T12:15:49;0.63;;;0.63;;
6531;SDS011;3299;42.004;24.868;2024-02-04T12:18:15;2.05;;;1.10;;
6531;SDS011;3299;42.004;24.868;2024-02-04T12:20:45;0.80;;;0.80;;
6531;SDS011;3299;42.004;24.868;2024-02-04T12:23:12;1.80;;;1.23;;
6531;SDS011;3299;42.004;24.868;2024-02-04T12:25:37;1.63;;;1.42;;
6531;SDS011;3299;42.004;24.868;2024-02-04T12:28:03;1.20;;;1.10;;
6531;SDS011;3299;42.004;24.868;2024-02-04T12:30:30;0.98;;;0.98;;
6531;SDS011;3299;42.004;24.868;2024-02-04T12:32:56;3.72;;;2.40;;
6531;SDS011;3299;42.004;24.868;2024-02-04T12:35:23;1.35;;;1.00;;
6531;SDS011;3299;42.004;24.868;2024-02-04T12:37:52;1.65;;;1.10;;
6531;SDS011;3299;42.004;24.868;2024-02-04T12:40:21;2.80;;;1.00;;
6531;SDS011;3299;42.004;24.868;2024-02-04T12:42:51;1.58;;;0.80;;
6531;SDS011;3299;42.004;24.868;2024-02-04T12:45:23;1.20;;;1.20;;
6531;SDS011;3299;42.004;24.868;2024-02-04T12:47:53;1.25;;;1.15;;
6531;SDS011;3299;42.004;24.868;2024-02-04T12:50:20;0.80;;;0.80;;
6531;SDS011;3299;42.004;24.868;2024-02-04T12:52:49;2.65;;;1.60;;
6531;SDS011;3299;42.004;24.868;2024-02-04T12:55:27;2.78;;;1.08;;
6531;SDS011;3299;42.004;24.868;2024-02-04T12:58:06;1.15;;;1.13;;
6531;SDS011;3299;42.004;24.868;2024-02-04T13:00:43;0.98;;;0.98;;
6531;SDS011;3299;42.004;24.868;2024-02-04T13:03:09;1.00;;;0.88;;
6531;SDS011;3299;42.004;24.868;2024-02-04T13:05:35;1.80;;;1.70;;
6531;SDS011;3299;42.004;24.868;2024-02-04T13:08:01;1.02;;;1.02;;
6531;SDS011;3299;42.004;24.868;2024-02-04T13:10:29;1.70;;;1.05;;
6531;SDS011;3299;42.004;24.868;2024-02-04T13:13:05;1.80;;;1.05;;
6531;SDS011;3299;42.004;24.868;2024-02-04T13:15:36;0.98;;;0.98;;
6531;SDS011;3299;42.004;24.868;2024-02-04T13:18:06;1.75;;;0.90;;
6531;SDS011;3299;42.004;24.868;2024-02-04T13:20:32;1.25;;;1.25;;
6531;SDS011;3299;42.004;24.868;2024-02-04T13:22:58;1.70;;;1.10;;
6531;SDS011;3299;42.004;24.868;2024-02-04T13:25:25;1.45;;;1.10;;
6531;SDS011;3299;42.004;24.868;2024-02-04T13:27:51;0.88;;;0.88;;
6531;SDS011;3299;42.004;24.868;2024-02-04T13:30:20;1.10;;;1.00;;
6531;SDS011;3299;42.004;24.868;2024-02-04T13:32:46;1.20;;;1.20;;
6531;SDS011;3299;42.004;24.868;2024-02-04T13:35:11;0.88;;;0.88;;
6531;SDS011;3299;42.004;24.868;2024-02-04T13:37:41;0.80;;;0.80;;
6531;SDS011;3299;42.004;24.868;2024-02-04T13:40:12;0.80;;;0.80;;
6531;SDS011;3299;42.004;24.868;2024-02-04T13:42:39;1.40;;;1.30;;
6531;SDS011;3299;42.004;24.868;2024-02-04T13:45:04;1.42;;;1.33;;
6531;SDS011;3299;42.004;24.868;2024-02-04T13:47:30;0.80;;;0.80;;
6531;SDS011;3299;42.004;24.868;2024-02-04T13:49:55;0.90;;;0.90;;
6531;SDS011;3299;42.004;24.868;2024-02-04T13:52:21;1.60;;;1.50;;
6531;SDS011;3299;42.004;24.868;2024-02-04T13:54:47;1.92;;;1.33;;
6531;SDS011;3299;42.004;24.868;2024-02-04T13:57:12;0.88;;;0.88;;
6531;SDS011;3299;42.004;24.868;2024-02-04T13:59:37;2.13;;;1.30;;
6531;SDS011;3299;42.004;24.868;2024-02-04T14:02:03;1.08;;;1.08;;
6531;SDS011;3299;42.004;24.868;2024-02-04T14:04:30;2.03;;;1.27;;
6531;SDS011;3299;42.004;24.868;2024-02-04T14:06:56;1.23;;;1.20;;
6531;SDS011;3299;42.004;24.868;2024-02-04T14:09:22;1.67;;;1.05;;
6531;SDS011;3299;42.004;24.868;2024-02-04T14:11:47;2.72;;;1.48;;
6531;SDS011;3299;42.004;24.868;2024-02-04T14:14:13;2.15;;;1.40;;
6531;SDS011;3299;42.004;24.868;2024-02-04T14:16:39;1.70;;;1.50;;
6531;SDS011;3299;42.004;24.868;2024-02-04T14:19:04;1.25;;;1.15;;
6531;SDS011;3299;42.004;24.868;2024-02-04T14:21:30;1.63;;;1.52;;
6531;SDS011;3299;42.004;24.868;2024-02-04T14:23:55;2.42;;;1.25;;
6531;SDS011;3299;42.004;24.868;2024-02-04T14:26:21;3.85;;;1.15;;
6531;SDS011;3299;42.004;24.868;2024-02-04T14:28:47;1.65;;;1.55;;
6531;SDS011;3299;42.004;24.868;2024-02-04T14:31:16;1.45;;;1.00;;
6531;SDS011;3299;42.004;24.868;2024-02-04T14:33:42;3.40;;;2.38;;
6531;SDS011;3299;42.004;24.868;2024-02-04T14:36:07;2.22;;;1.60;;
6531;SDS011;3299;42.004;24.868;2024-02-04T14:38:33;1.30;;;1.20;;
6531;SDS011;3299;42.004;24.868;2024-02-04T14:40:58;1.40;;;1.30;;
6531;SDS011;3299;42.004;24.868;2024-02-04T14:43:27;1.13;;;1.02;;
6531;SDS011;3299;42.004;24.868;2024-02-04T14:45:52;1.33;;;0.98;;
6531;SDS011;3299;42.004;24.868;2024-02-04T14:48:18;1.23;;;1.13;;
6531;SDS011;3299;42.004;24.868;2024-02-04T14:50:43;2.45;;;1.38;;
6531;SDS011;3299;42.004;24.868;2024-02-04T14:53:09;1.38;;;1.27;;
6531;SDS011;3299;42.004;24.868;2024-02-04T14:55:34;1.17;;;1.15;;
6531;SDS011;3299;42.004;24.868;2024-02-04T14:58:00;2.20;;;1.42;;
6531;SDS011;3299;42.004;24.868;2024-02-04T15:00:25;1.02;;;1.02;;
6531;SDS011;3299;42.004;24.868;2024-02-04T15:02:53;2.33;;;1.52;;
6531;SDS011;3299;42.004;24.868;2024-02-04T15:05:19;0.70;;;0.63;;
6531;SDS011;3299;42.004;24.868;2024-02-04T15:07:46;0.80;;;0.80;;